sensor_id;sensor_type;location;lat;lon;timestamp;P1;durP1;ratioP1;P2;durP2;ratioP2
57055;SDS011;42945;51.718;5.324;2023-09-08T00:05:17;14.30;;;9.57;;
57055;SDS011;42945;51.718;5.324;2023-09-08T00:11:04;19.27;;;9.52;;
57055;SDS011;42945;51.718;5.324;2023-09-08T00:16:54;16.90;;;9.13;;
57055;SDS011;42945;51.718;5.324;2023-09-08T00:22:45;13.13;;;9.27;;
57055;SDS011;42945;51.718;5.324;2023-09-08T00:28:33;14.20;;;8.70;;
57055;SDS011;42945;51.718;5.324;2023-09-08T00:34:21;14.02;;;8.55;;
57055;SDS011;42945;51.718;5.324;2023-09-08T00:40:08;18.35;;;9.20;;
57055;SDS011;42945;51.718;5.324;2023-09-08T00:45:57;14.73;;;9.23;;
57055;SDS011;42945;51.718;5.324;2023-09-08T00:55:41;13.10;;;9.27;;
57055;SDS011;42945;51.718;5.324;2023-09-08T01:01:29;16.13;;;9.75;;
57055;SDS011;42945;51.718;5.324;2023-09-08T01:07:18;15.87;;;10.30;;
57055;SDS011;42945;51.718;5.324;2023-09-08T01:13:08;16.17;;;9.73;;
57055;SDS011;42945;51.718;5.324;2023-09-08T01:18:57;15.75;;;9.77;;
57055;SDS011;42945;51.718;5.324;2023-09-08T01:30:53;15.15;;;10.50;;
57055;SDS011;42945;51.718;5.324;2023-09-08T01:36:43;19.83;;;11.23;;
57055;SDS011;42945;51.718;5.324;2023-09-08T01:42:33;16.65;;;10.73;;
57055;SDS011;42945;51.718;5.324;2023-09-08T01:48:21;17.00;;;10.85;;
57055;SDS011;42945;51.718;5.324;2023-09-08T01:58:10;18.65;;;11.43;;
57055;SDS011;42945;51.718;5.324;2023-09-08T02:03:58;19.67;;;10.90;;
57055;SDS011;42945;51.718;5.324;2023-09-08T02:09:46;21.17;;;11.90;;
57055;SDS011;42945;51.718;5.324;2023-09-08T02:15:35;18.63;;;11.95;;
57055;SDS011;42945;51.718;5.324;2023-09-08T02:21:24;21.90;;;12.27;;
57055;SDS011;42945;51.718;5.324;2023-09-08T02:27:12;21.83;;;12.43;;
57055;SDS011;42945;51.718;5.324;2023-09-08T02:33:00;19.00;;;13.02;;
57055;SDS011;42945;51.718;5.324;2023-09-08T02:38:51;18.08;;;12.65;;
57055;SDS011;42945;51.718;5.324;2023-09-08T02:44:40;19.63;;;12.60;;
57055;SDS011;42945;51.718;5.324;2023-09-08T02:50:28;21.13;;;12.27;;
57055;SDS011;42945;51.718;5.324;2023-09-08T03:00:10;23.85;;;12.23;;
57055;SDS011;42945;51.718;5.324;2023-09-08T03:05:58;20.03;;;11.87;;
57055;SDS011;42945;51.718;5.324;2023-09-08T03:11:50;19.45;;;11.25;;
57055;SDS011;42945;51.718;5.324;2023-09-08T03:17:37;18.63;;;11.93;;
57055;SDS011;42945;51.718;5.324;2023-09-08T03:23:26;22.10;;;12.13;;
57055;SDS011;42945;51.718;5.324;2023-09-08T03:29:14;23.63;;;12.60;;
57055;SDS011;42945;51.718;5.324;2023-09-08T03:35:06;23.77;;;11.95;;
57055;SDS011;42945;51.718;5.324;2023-09-08T03:40:55;17.27;;;12.32;;
57055;SDS011;42945;51.718;5.324;2023-09-08T03:46:43;22.13;;;12.70;;
57055;SDS011;42945;51.718;5.324;2023-09-08T03:52:30;19.10;;;12.00;;
57055;SDS011;42945;51.718;5.324;2023-09-08T04:02:14;18.20;;;12.85;;
57055;SDS011;42945;51.718;5.324;2023-09-08T04:08:02;22.42;;;13.13;;
57055;SDS011;42945;51.718;5.324;2023-09-08T04:13:55;23.50;;;13.20;;
57055;SDS011;42945;51.718;5.324;2023-09-08T04:19:43;20.45;;;14.02;;
57055;SDS011;42945;51.718;5.324;2023-09-08T04:25:31;21.83;;;13.70;;
57055;SDS011;42945;51.718;5.324;2023-09-08T04:31:20;20.27;;;14.50;;
57055;SDS011;42945;51.718;5.324;2023-09-08T04:37:09;22.35;;;14.82;;
57055;SDS011;42945;51.718;5.324;2023-09-08T04:42:57;22.73;;;13.98;;
57055;SDS011;42945;51.718;5.324;2023-09-08T04:48:45;21.30;;;14.13;;
57055;SDS011;42945;51.718;5.324;2023-09-08T04:54:32;20.42;;;13.88;;
57055;SDS011;42945;51.718;5.324;2023-09-08T05:04:14;21.58;;;13.80;;
57055;SDS011;42945;51.718;5.324;2023-09-08T05:10:01;22.58;;;14.48;;
57055;SDS011;42945;51.718;5.324;2023-09-08T05:15:50;26.35;;;15.07;;
57055;SDS011;42945;51.718;5.324;2023-09-08T05:21:39;22.52;;;14.55;;
57055;SDS011;42945;51.718;5.324;2023-09-08T05:27:30;26.10;;;15.25;;
57055;SDS011;42945;51.718;5.324;2023-09-08T05:33:18;28.55;;;15.70;;
57055;SDS011;42945;51.718;5.324;2023-09-08T05:39:06;23.08;;;14.90;;
57055;SDS011;42945;51.718;5.324;2023-09-08T05:44:54;29.60;;;16.02;;
57055;SDS011;42945;51.718;5.324;2023-09-08T05:50:42;27.10;;;15.10;;
57055;SDS011;42945;51.718;5.324;2023-09-08T05:56:31;28.17;;;15.73;;
57055;SDS011;42945;51.718;5.324;2023-09-08T06:06:16;25.67;;;15.80;;
57055;SDS011;42945;51.718;5.324;2023-09-08T06:12:05;22.95;;;15.45;;
57055;SDS011;42945;51.718;5.324;2023-09-08T06:17:53;22.55;;;15.50;;
57055;SDS011;42945;51.718;5.324;2023-09-08T06:23:41;26.85;;;15.43;;
57055;SDS011;42945;51.718;5.324;2023-09-08T06:29:30;24.98;;;16.23;;
57055;SDS011;42945;51.718;5.324;2023-09-08T06:35:18;21.40;;;15.27;;
57055;SDS011;42945;51.718;5.324;2023-09-08T06:41:09;26.00;;;16.98;;
57055;SDS011;42945;51.718;5.324;2023-09-08T06:46:58;23.27;;;16.13;;
57055;SDS011;42945;51.718;5.324;2023-09-08T06:52:46;25.98;;;17.25;;
57055;SDS011;42945;51.718;5.324;2023-09-08T06:58:36;23.45;;;17.00;;
57055;SDS011;42945;51.718;5.324;2023-09-08T07:08:18;26.17;;;16.83;;
57055;SDS011;42945;51.718;5.324;2023-09-08T07:14:05;24.65;;;17.00;;
57055;SDS011;42945;51.718;5.324;2023-09-08T07:19:53;29.58;;;16.55;;
57055;SDS011;42945;51.718;5.324;2023-09-08T07:25:44;23.87;;;16.20;;
57055;SDS011;42945;51.718;5.324;2023-09-08T07:31:36;21.65;;;15.70;;
57055;SDS011;42945;51.718;5.324;2023-09-08T07:37:27;24.80;;;15.48;;
57055;SDS011;42945;51.718;5.324;2023-09-08T07:43:17;25.02;;;16.00;;
57055;SDS011;42945;51.718;5.324;2023-09-08T07:49:05;19.10;;;13.10;;
57055;SDS011;42945;51.718;5.324;2023-09-08T07:54:53;17.90;;;12.95;;
57055;SDS011;42945;51.718;5.324;2023-09-08T08:00:42;18.48;;;12.95;;
57055;SDS011;42945;51.718;5.324;2023-09-08T08:10:25;17.42;;;11.85;;
57055;SDS011;42945;51.718;5.324;2023-09-08T08:16:14;17.90;;;11.50;;
57055;SDS011;42945;51.718;5.324;2023-09-08T08:22:03;16.08;;;11.15;;
57055;SDS011;42945;51.718;5.324;2023-09-08T08:27:52;17.02;;;11.65;;
57055;SDS011;42945;51.718;5.324;2023-09-08T08:33:40;18.00;;;11.60;;
57055;SDS011;42945;51.718;5.324;2023-09-08T08:39:30;13.98;;;10.57;;
57055;SDS011;42945;51.718;5.324;2023-09-08T08:45:18;20.02;;;10.80;;
57055;SDS011;42945;51.718;5.324;2023-09-08T08:51:09;14.20;;;10.48;;
57055;SDS011;42945;51.718;5.324;2023-09-08T08:56:59;16.03;;;11.10;;
57055;SDS011;42945;51.718;5.324;2023-09-08T09:02:48;20.38;;;11.82;;
57055;SDS011;42945;51.718;5.324;2023-09-08T09:12:35;15.70;;;10.77;;
57055;SDS011;42945;51.718;5.324;2023-09-08T09:18:27;16.25;;;10.38;;
57055;SDS011;42945;51.718;5.324;2023-09-08T09:24:17;18.37;;;11.43;;
57055;SDS011;42945;51.718;5.324;2023-09-08T09:30:46;15.93;;;10.68;;
57055;SDS011;42945;51.718;5.324;2023-09-08T09:36:39;13.75;;;10.05;;
57055;SDS011;42945;51.718;5.324;2023-09-08T09:42:33;13.50;;;10.33;;
57055;SDS011;42945;51.718;5.324;2023-09-08T09:48:20;13.07;;;9.00;;
57055;SDS011;42945;51.718;5.324;2023-09-08T09:54:11;13.40;;;8.80;;
57055;SDS011;42945;51.718;5.324;2023-09-08T10:00:00;14.50;;;9.20;;
57055;SDS011;42945;51.718;5.324;2023-09-08T10:05:53;67.82;;;18.15;;
57055;SDS011;42945;51.718;5.324;2023-09-08T10:15:43;14.45;;;8.75;;
57055;SDS011;42945;51.718;5.324;2023-09-08T10:21:32;18.15;;;8.65;;
57055;SDS011;42945;51.718;5.324;2023-09-08T10:27:23;15.88;;;8.40;;
57055;SDS011;42945;51.718;5.324;2023-09-08T10:45:31;11.27;;;7.82;;
57055;SDS011;42945;51.718;5.324;2023-09-08T10:51:19;11.98;;;7.63;;
57055;SDS011;42945;51.718;5.324;2023-09-08T11:03:04;10.32;;;7.68;;
57055;SDS011;42945;51.718;5.324;2023-09-08T11:08:54;9.85;;;7.25;;
57055;SDS011;42945;51.718;5.324;2023-09-08T11:18:44;12.50;;;7.85;;
57055;SDS011;42945;51.718;5.324;2023-09-08T11:24:32;13.27;;;8.50;;
57055;SDS011;42945;51.718;5.324;2023-09-08T11:30:21;10.77;;;7.13;;
57055;SDS011;42945;51.718;5.324;2023-09-08T11:42:01;11.10;;;6.82;;
57055;SDS011;42945;51.718;5.324;2023-09-08T11:59:33;9.70;;;7.18;;
57055;SDS011;42945;51.718;5.324;2023-09-08T12:05:24;10.27;;;7.30;;
57055;SDS011;42945;51.718;5.324;2023-09-08T12:11:13;8.80;;;6.50;;
57055;SDS011;42945;51.718;5.324;2023-09-08T12:21:04;14.13;;;6.25;;
57055;SDS011;42945;51.718;5.324;2023-09-08T12:26:53;9.68;;;6.38;;
57055;SDS011;42945;51.718;5.324;2023-09-08T12:32:42;9.43;;;6.53;;
57055;SDS011;42945;51.718;5.324;2023-09-08T12:38:32;9.75;;;6.40;;
57055;SDS011;42945;51.718;5.324;2023-09-08T12:44:22;8.90;;;5.93;;
57055;SDS011;42945;51.718;5.324;2023-09-08T12:50:17;10.15;;;6.05;;
57055;SDS011;42945;51.718;5.324;2023-09-08T12:56:06;11.32;;;6.63;;
57055;SDS011;42945;51.718;5.324;2023-09-08T13:01:54;14.00;;;6.60;;
57055;SDS011;42945;51.718;5.324;2023-09-08T13:13:31;7.70;;;5.75;;
57055;SDS011;42945;51.718;5.324;2023-09-08T13:23:20;7.25;;;5.88;;
57055;SDS011;42945;51.718;5.324;2023-09-08T13:29:09;8.13;;;5.75;;
57055;SDS011;42945;51.718;5.324;2023-09-08T13:34:58;6.25;;;5.15;;
57055;SDS011;42945;51.718;5.324;2023-09-08T13:40:46;9.13;;;5.93;;
57055;SDS011;42945;51.718;5.324;2023-09-08T13:46:34;11.75;;;5.22;;
57055;SDS011;42945;51.718;5.324;2023-09-08T13:52:21;11.60;;;5.43;;
57055;SDS011;42945;51.718;5.324;2023-09-08T13:58:10;12.25;;;5.47;;
57055;SDS011;42945;51.718;5.324;2023-09-08T14:03:58;11.20;;;5.60;;
57055;SDS011;42945;51.718;5.324;2023-09-08T14:09:48;6.03;;;5.15;;
57055;SDS011;42945;51.718;5.324;2023-09-08T14:15:36;11.25;;;5.40;;
57055;SDS011;42945;51.718;5.324;2023-09-08T14:25:19;9.97;;;5.40;;
57055;SDS011;42945;51.718;5.324;2023-09-08T14:31:08;8.32;;;5.32;;
57055;SDS011;42945;51.718;5.324;2023-09-08T14:36:57;11.70;;;5.20;;
57055;SDS011;42945;51.718;5.324;2023-09-08T14:42:46;8.85;;;5.30;;
57055;SDS011;42945;51.718;5.324;2023-09-08T14:48:34;9.00;;;4.93;;
57055;SDS011;42945;51.718;5.324;2023-09-08T14:54:23;14.38;;;4.95;;
57055;SDS011;42945;51.718;5.324;2023-09-08T15:00:13;9.30;;;5.10;;
57055;SDS011;42945;51.718;5.324;2023-09-08T15:06:01;9.52;;;5.15;;
57055;SDS011;42945;51.718;5.324;2023-09-08T15:11:51;13.23;;;5.18;;
57055;SDS011;42945;51.718;5.324;2023-09-08T15:27:21;11.63;;;4.70;;
57055;SDS011;42945;51.718;5.324;2023-09-08T15:38:58;8.75;;;6.03;;
57055;SDS011;42945;51.718;5.324;2023-09-08T15:44:46;13.23;;;7.35;;
57055;SDS011;42945;51.718;5.324;2023-09-08T15:50:35;8.98;;;4.65;;
57055;SDS011;42945;51.718;5.324;2023-09-08T15:56:23;9.60;;;4.30;;
57055;SDS011;42945;51.718;5.324;2023-09-08T16:02:12;7.18;;;4.82;;
57055;SDS011;42945;51.718;5.324;2023-09-08T16:08:01;11.18;;;5.05;;
57055;SDS011;42945;51.718;5.324;2023-09-08T16:13:49;11.07;;;4.60;;
57055;SDS011;42945;51.718;5.324;2023-09-08T16:19:36;8.38;;;4.40;;
57055;SDS011;42945;51.718;5.324;2023-09-08T16:30:34;9.68;;;4.65;;
57055;SDS011;42945;51.718;5.324;2023-09-08T16:36:23;12.95;;;4.40;;
57055;SDS011;42945;51.718;5.324;2023-09-08T16:42:11;8.50;;;4.47;;
57055;SDS011;42945;51.718;5.324;2023-09-08T16:48:00;12.00;;;4.07;;
57055;SDS011;42945;51.718;5.324;2023-09-08T16:53:48;12.73;;;4.63;;
57055;SDS011;42945;51.718;5.324;2023-09-08T16:59:36;9.10;;;4.20;;
57055;SDS011;42945;51.718;5.324;2023-09-08T17:05:24;8.65;;;4.15;;
57055;SDS011;42945;51.718;5.324;2023-09-08T17:11:13;9.63;;;4.63;;
57055;SDS011;42945;51.718;5.324;2023-09-08T17:17:01;11.73;;;4.60;;
57055;SDS011;42945;51.718;5.324;2023-09-08T17:22:49;6.40;;;4.43;;
57055;SDS011;42945;51.718;5.324;2023-09-08T17:32:37;11.67;;;6.13;;
57055;SDS011;42945;51.718;5.324;2023-09-08T17:44:14;12.27;;;6.28;;
57055;SDS011;42945;51.718;5.324;2023-09-08T17:55:49;9.93;;;6.28;;
57055;SDS011;42945;51.718;5.324;2023-09-08T18:01:38;13.13;;;6.90;;
57055;SDS011;42945;51.718;5.324;2023-09-08T18:13:14;12.90;;;7.10;;
57055;SDS011;42945;51.718;5.324;2023-09-08T18:19:02;13.07;;;8.35;;
57055;SDS011;42945;51.718;5.324;2023-09-08T18:24:51;14.45;;;7.95;;
57055;SDS011;42945;51.718;5.324;2023-09-08T18:34:34;14.50;;;8.23;;
57055;SDS011;42945;51.718;5.324;2023-09-08T18:40:21;14.98;;;8.90;;
57055;SDS011;42945;51.718;5.324;2023-09-08T18:46:09;15.18;;;8.85;;
57055;SDS011;42945;51.718;5.324;2023-09-08T18:51:58;26.08;;;8.55;;
57055;SDS011;42945;51.718;5.324;2023-09-08T18:57:46;12.98;;;8.52;;
57055;SDS011;42945;51.718;5.324;2023-09-08T19:03:39;13.75;;;8.82;;
57055;SDS011;42945;51.718;5.324;2023-09-08T19:09:28;13.90;;;9.15;;
57055;SDS011;42945;51.718;5.324;2023-09-08T19:15:15;13.65;;;9.50;;
57055;SDS011;42945;51.718;5.324;2023-09-08T19:21:03;16.58;;;9.43;;
57055;SDS011;42945;51.718;5.324;2023-09-08T19:26:51;15.50;;;9.35;;
57055;SDS011;42945;51.718;5.324;2023-09-08T19:36:34;16.98;;;9.55;;
57055;SDS011;42945;51.718;5.324;2023-09-08T19:42:24;20.88;;;9.57;;
57055;SDS011;42945;51.718;5.324;2023-09-08T19:48:12;15.02;;;9.93;;
57055;SDS011;42945;51.718;5.324;2023-09-08T19:53:59;18.88;;;11.88;;
57055;SDS011;42945;51.718;5.324;2023-09-08T19:59:48;19.40;;;12.00;;
57055;SDS011;42945;51.718;5.324;2023-09-08T20:05:35;19.90;;;11.02;;
57055;SDS011;42945;51.718;5.324;2023-09-08T20:11:23;16.17;;;11.40;;
57055;SDS011;42945;51.718;5.324;2023-09-08T20:17:10;16.40;;;11.68;;
57055;SDS011;42945;51.718;5.324;2023-09-08T20:22:58;23.00;;;12.40;;
57055;SDS011;42945;51.718;5.324;2023-09-08T20:28:46;14.90;;;11.20;;
57055;SDS011;42945;51.718;5.324;2023-09-08T20:38:23;19.92;;;12.15;;
57055;SDS011;42945;51.718;5.324;2023-09-08T20:44:11;17.08;;;12.50;;
57055;SDS011;42945;51.718;5.324;2023-09-08T20:50:06;23.02;;;12.98;;
57055;SDS011;42945;51.718;5.324;2023-09-08T20:55:56;23.95;;;13.07;;
57055;SDS011;42945;51.718;5.324;2023-09-08T21:01:43;21.17;;;13.57;;
57055;SDS011;42945;51.718;5.324;2023-09-08T21:07:31;27.65;;;14.07;;
57055;SDS011;42945;51.718;5.324;2023-09-08T21:13:19;20.20;;;13.88;;
57055;SDS011;42945;51.718;5.324;2023-09-08T21:19:08;23.05;;;14.27;;
57055;SDS011;42945;51.718;5.324;2023-09-08T21:24:56;24.27;;;14.77;;
57055;SDS011;42945;51.718;5.324;2023-09-08T21:30:45;20.80;;;15.73;;
57055;SDS011;42945;51.718;5.324;2023-09-08T21:46:17;21.93;;;15.37;;
57055;SDS011;42945;51.718;5.324;2023-09-08T21:52:05;28.20;;;15.83;;
57055;SDS011;42945;51.718;5.324;2023-09-08T21:57:54;19.90;;;15.13;;
57055;SDS011;42945;51.718;5.324;2023-09-08T22:03:42;22.63;;;15.43;;
57055;SDS011;42945;51.718;5.324;2023-09-08T22:09:30;24.40;;;16.47;;
57055;SDS011;42945;51.718;5.324;2023-09-08T22:15:19;29.98;;;20.98;;
57055;SDS011;42945;51.718;5.324;2023-09-08T22:21:07;34.72;;;24.10;;
57055;SDS011;42945;51.718;5.324;2023-09-08T22:26:54;42.85;;;28.58;;
57055;SDS011;42945;51.718;5.324;2023-09-08T22:32:43;41.53;;;27.33;;
57055;SDS011;42945;51.718;5.324;2023-09-08T22:42:27;41.78;;;27.27;;
57055;SDS011;42945;51.718;5.324;2023-09-08T22:48:14;40.72;;;27.17;;
57055;SDS011;42945;51.718;5.324;2023-09-08T22:54:03;38.30;;;27.98;;
57055;SDS011;42945;51.718;5.324;2023-09-08T22:59:51;51.33;;;30.33;;
57055;SDS011;42945;51.718;5.324;2023-09-08T23:05:39;54.25;;;37.05;;
57055;SDS011;42945;51.718;5.324;2023-09-08T23:11:27;53.85;;;36.53;;
57055;SDS011;42945;51.718;5.324;2023-09-08T23:17:17;56.00;;;38.83;;
57055;SDS011;42945;51.718;5.324;2023-09-08T23:23:06;55.00;;;38.25;;
57055;SDS011;42945;51.718;5.324;2023-09-08T23:28:54;60.72;;;41.05;;
57055;SDS011;42945;51.718;5.324;2023-09-08T23:34:42;64.03;;;42.83;;
57055;SDS011;42945;51.718;5.324;2023-09-08T23:44:24;71.30;;;47.10;;
57055;SDS011;42945;51.718;5.324;2023-09-08T23:50:12;78.65;;;49.92;;
57055;SDS011;42945;51.718;5.324;2023-09-08T23:56:00;84.43;;;52.05;;
